Farrandsville, Pennsylvania
Current Conditions -  °F | °C
As of 8:53 AM on Tuesday 27 Jan 2015 (Local Time) from KUNV Reporting Station
Light Snow Light Snow  
Wind Chill: 12°   Ceiling: 2900
Heat Index: 21°   Visibility: 6mi
Dew Point: 16°   Wind: 8mph
Humidity: 80%   Direction: 10°N
Pressure: 29.83"   Gusts: NA
Location:  41.17°N, 77.51°W
Report Text: KUNV 271353Z 01007KT 6SM -SN BR BKN029 OVC036 M06/M09 A2983
Loading
Personal Weather Stations






























Interactive Weather Map New forecast layout! Learn more

10-Day Weather Forecast

Advertisements
Track Severe Weather on mobile